sensor_id;sensor_type;location;lat;lon;timestamp;pressure;altitude;pressure_sealevel;temperature
82636;BMP280;72317;37.280;-121.948;2024-03-06T00:00:03;97827.59;;;15.74
82636;BMP280;72317;37.280;-121.948;2024-03-06T00:05:04;97746.25;;;15.81
82636;BMP280;72317;37.280;-121.948;2024-03-06T00:10:05;97743.94;;;15.74
82636;BMP280;72317;37.280;-121.948;2024-03-06T00:15:06;97666.09;;;15.52
82636;BMP280;72317;37.280;-121.948;2024-03-06T00:20:07;97630.97;;;15.67
82636;BMP280;72317;37.280;-121.948;2024-03-06T00:25:08;97662.00;;;15.42
82636;BMP280;72317;37.280;-121.948;2024-03-06T00:30:09;97607.19;;;15.65
82636;BMP280;72317;37.280;-121.948;2024-03-06T00:35:10;97608.31;;;15.99
82636;BMP280;72317;37.280;-121.948;2024-03-06T00:40:11;97679.38;;;15.70
82636;BMP280;72317;37.280;-121.948;2024-03-06T00:45:13;97634.91;;;15.86
82636;BMP280;72317;37.280;-121.948;2024-03-06T00:50:14;97595.75;;;15.56
82636;BMP280;72317;37.280;-121.948;2024-03-06T00:55:16;97543.25;;;15.57
82636;BMP280;72317;37.280;-121.948;2024-03-06T01:00:17;97514.91;;;15.26
82636;BMP280;72317;37.280;-121.948;2024-03-06T01:05:18;97495.72;;;15.04
82636;BMP280;72317;37.280;-121.948;2024-03-06T01:10:18;97495.44;;;15.02
82636;BMP280;72317;37.280;-121.948;2024-03-06T01:15:19;97489.03;;;14.99
82636;BMP280;72317;37.280;-121.948;2024-03-06T01:20:20;97476.03;;;14.98
82636;BMP280;72317;37.280;-121.948;2024-03-06T01:25:21;97494.63;;;14.96
82636;BMP280;72317;37.280;-121.948;2024-03-06T01:30:22;97509.97;;;14.90
82636;BMP280;72317;37.280;-121.948;2024-03-06T01:35:24;97521.13;;;14.82
82636;BMP280;72317;37.280;-121.948;2024-03-06T01:40:24;97534.59;;;14.82
82636;BMP280;72317;37.280;-121.948;2024-03-06T01:45:25;97555.59;;;14.78
82636;BMP280;72317;37.280;-121.948;2024-03-06T01:50:26;97626.47;;;14.70
82636;BMP280;72317;37.280;-121.948;2024-03-06T01:55:27;97825.91;;;14.61
82636;BMP280;72317;37.280;-121.948;2024-03-06T02:00:28;98077.09;;;14.56
82636;BMP280;72317;37.280;-121.948;2024-03-06T02:05:29;98052.09;;;14.46
82636;BMP280;72317;37.280;-121.948;2024-03-06T02:10:30;98054.81;;;14.37
82636;BMP280;72317;37.280;-121.948;2024-03-06T02:15:31;97952.94;;;14.26
82636;BMP280;72317;37.280;-121.948;2024-03-06T02:20:32;97996.28;;;14.28
82636;BMP280;72317;37.280;-121.948;2024-03-06T02:25:33;98098.78;;;14.15
82636;BMP280;72317;37.280;-121.948;2024-03-06T02:30:34;98251.94;;;14.13
82636;BMP280;72317;37.280;-121.948;2024-03-06T02:35:35;98317.25;;;14.05
82636;BMP280;72317;37.280;-121.948;2024-03-06T02:40:36;98381.69;;;13.99
82636;BMP280;72317;37.280;-121.948;2024-03-06T02:45:37;98492.44;;;13.88
82636;BMP280;72317;37.280;-121.948;2024-03-06T02:50:37;98539.25;;;13.91
82636;BMP280;72317;37.280;-121.948;2024-03-06T02:55:38;98582.53;;;13.84
82636;BMP280;72317;37.280;-121.948;2024-03-06T03:00:40;98525.31;;;13.83
82636;BMP280;72317;37.280;-121.948;2024-03-06T03:05:40;98606.69;;;13.75
82636;BMP280;72317;37.280;-121.948;2024-03-06T03:10:41;98592.13;;;13.72
82636;BMP280;72317;37.280;-121.948;2024-03-06T03:15:42;98552.22;;;13.71
82636;BMP280;72317;37.280;-121.948;2024-03-06T03:20:43;98627.88;;;13.60
82636;BMP280;72317;37.280;-121.948;2024-03-06T03:25:44;98710.97;;;13.58
82636;BMP280;72317;37.280;-121.948;2024-03-06T03:30:46;98818.81;;;13.51
82636;BMP280;72317;37.280;-121.948;2024-03-06T03:35:46;98854.75;;;13.41
82636;BMP280;72317;37.280;-121.948;2024-03-06T03:40:47;98924.22;;;13.29
82636;BMP280;72317;37.280;-121.948;2024-03-06T03:45:48;99058.44;;;13.24
82636;BMP280;72317;37.280;-121.948;2024-03-06T03:50:49;98967.59;;;13.15
82636;BMP280;72317;37.280;-121.948;2024-03-06T03:55:50;99030.75;;;13.07
82636;BMP280;72317;37.280;-121.948;2024-03-06T04:00:50;99132.78;;;12.94
82636;BMP280;72317;37.280;-121.948;2024-03-06T04:05:51;99253.13;;;12.87
82636;BMP280;72317;37.280;-121.948;2024-03-06T04:10:52;99239.75;;;12.83
82636;BMP280;72317;37.280;-121.948;2024-03-06T04:15:53;99165.50;;;12.89
82636;BMP280;72317;37.280;-121.948;2024-03-06T04:20:54;98926.44;;;13.18
82636;BMP280;72317;37.280;-121.948;2024-03-06T04:25:54;98804.59;;;12.89
82636;BMP280;72317;37.280;-121.948;2024-03-06T04:30:55;98875.66;;;12.88
82636;BMP280;72317;37.280;-121.948;2024-03-06T04:35:56;98834.56;;;12.87
82636;BMP280;72317;37.280;-121.948;2024-03-06T04:40:57;98978.38;;;12.79
82636;BMP280;72317;37.280;-121.948;2024-03-06T04:45:58;99198.44;;;12.74
82636;BMP280;72317;37.280;-121.948;2024-03-06T04:50:59;99282.00;;;12.83
82636;BMP280;72317;37.280;-121.948;2024-03-06T04:56:00;99281.34;;;12.98
82636;BMP280;72317;37.280;-121.948;2024-03-06T05:01:00;99201.50;;;12.95
82636;BMP280;72317;37.280;-121.948;2024-03-06T05:06:01;99122.44;;;12.93
82636;BMP280;72317;37.280;-121.948;2024-03-06T05:11:02;99050.03;;;12.86
82636;BMP280;72317;37.280;-121.948;2024-03-06T05:16:03;99111.25;;;12.75
82636;BMP280;72317;37.280;-121.948;2024-03-06T05:21:04;99301.78;;;12.69
82636;BMP280;72317;37.280;-121.948;2024-03-06T05:26:05;99386.75;;;12.59
82636;BMP280;72317;37.280;-121.948;2024-03-06T05:31:16;99466.19;;;12.60
82636;BMP280;72317;37.280;-121.948;2024-03-06T05:36:17;99459.75;;;12.54
82636;BMP280;72317;37.280;-121.948;2024-03-06T05:41:18;99491.72;;;12.45
82636;BMP280;72317;37.280;-121.948;2024-03-06T05:46:19;99463.66;;;12.50
82636;BMP280;72317;37.280;-121.948;2024-03-06T05:51:20;99430.72;;;12.42
82636;BMP280;72317;37.280;-121.948;2024-03-06T05:56:23;99488.72;;;12.39
82636;BMP280;72317;37.280;-121.948;2024-03-06T06:01:24;99489.88;;;12.38
82636;BMP280;72317;37.280;-121.948;2024-03-06T06:06:25;99419.44;;;12.58
82636;BMP280;72317;37.280;-121.948;2024-03-06T06:11:25;99282.72;;;12.60
82636;BMP280;72317;37.280;-121.948;2024-03-06T06:16:26;99129.28;;;12.54
82636;BMP280;72317;37.280;-121.948;2024-03-06T06:21:27;99125.28;;;12.43
82636;BMP280;72317;37.280;-121.948;2024-03-06T06:26:27;99209.66;;;12.45
82636;BMP280;72317;37.280;-121.948;2024-03-06T06:31:28;99293.88;;;12.31
82636;BMP280;72317;37.280;-121.948;2024-03-06T06:36:29;99506.81;;;11.94
82636;BMP280;72317;37.280;-121.948;2024-03-06T06:41:30;99679.75;;;11.90
82636;BMP280;72317;37.280;-121.948;2024-03-06T06:46:30;99652.38;;;12.16
82636;BMP280;72317;37.280;-121.948;2024-03-06T06:51:31;99437.13;;;12.21
82636;BMP280;72317;37.280;-121.948;2024-03-06T06:56:32;99359.44;;;12.03
82636;BMP280;72317;37.280;-121.948;2024-03-06T07:01:33;99341.56;;;12.24
82636;BMP280;72317;37.280;-121.948;2024-03-06T07:06:33;99307.66;;;12.06
82636;BMP280;72317;37.280;-121.948;2024-03-06T07:11:34;99314.13;;;12.09
82636;BMP280;72317;37.280;-121.948;2024-03-06T07:16:42;99271.34;;;12.25
82636;BMP280;72317;37.280;-121.948;2024-03-06T07:21:43;99008.25;;;12.42
82636;BMP280;72317;37.280;-121.948;2024-03-06T07:26:44;98858.53;;;12.46
82636;BMP280;72317;37.280;-121.948;2024-03-06T07:31:44;98766.22;;;12.56
82636;BMP280;72317;37.280;-121.948;2024-03-06T07:36:45;98824.75;;;12.48
82636;BMP280;72317;37.280;-121.948;2024-03-06T07:41:46;98882.28;;;12.47
82636;BMP280;72317;37.280;-121.948;2024-03-06T07:46:47;98857.72;;;12.49
82636;BMP280;72317;37.280;-121.948;2024-03-06T07:51:48;98960.84;;;12.35
82636;BMP280;72317;37.280;-121.948;2024-03-06T07:56:49;98896.22;;;12.42
82636;BMP280;72317;37.280;-121.948;2024-03-06T08:01:49;98872.56;;;12.37
82636;BMP280;72317;37.280;-121.948;2024-03-06T08:06:50;98915.56;;;12.33
82636;BMP280;72317;37.280;-121.948;2024-03-06T08:11:51;98886.03;;;12.33
82636;BMP280;72317;37.280;-121.948;2024-03-06T08:16:52;99046.53;;;12.26
82636;BMP280;72317;37.280;-121.948;2024-03-06T08:21:52;99102.31;;;12.38
82636;BMP280;72317;37.280;-121.948;2024-03-06T08:26:53;99075.13;;;12.36
82636;BMP280;72317;37.280;-121.948;2024-03-06T08:31:54;99006.00;;;12.40
82636;BMP280;72317;37.280;-121.948;2024-03-06T08:36:55;98992.41;;;12.27
82636;BMP280;72317;37.280;-121.948;2024-03-06T08:41:56;99013.91;;;12.27
82636;BMP280;72317;37.280;-121.948;2024-03-06T08:46:56;99074.09;;;12.30
82636;BMP280;72317;37.280;-121.948;2024-03-06T08:51:57;99251.34;;;11.99
82636;BMP280;72317;37.280;-121.948;2024-03-06T08:56:58;99382.19;;;12.29
82636;BMP280;72317;37.280;-121.948;2024-03-06T09:02:12;99326.78;;;12.39
82636;BMP280;72317;37.280;-121.948;2024-03-06T09:07:13;99525.47;;;12.05
82636;BMP280;72317;37.280;-121.948;2024-03-06T09:12:14;99718.00;;;12.12
82636;BMP280;72317;37.280;-121.948;2024-03-06T09:17:15;99859.16;;;12.16
82636;BMP280;72317;37.280;-121.948;2024-03-06T09:22:16;99858.75;;;12.21
82636;BMP280;72317;37.280;-121.948;2024-03-06T09:27:17;99929.34;;;12.15
82636;BMP280;72317;37.280;-121.948;2024-03-06T09:32:17;99968.03;;;12.31
82636;BMP280;72317;37.280;-121.948;2024-03-06T09:37:19;99964.25;;;12.18
82636;BMP280;72317;37.280;-121.948;2024-03-06T09:42:20;100004.19;;;12.16
82636;BMP280;72317;37.280;-121.948;2024-03-06T09:47:22;100010.31;;;12.20
82636;BMP280;72317;37.280;-121.948;2024-03-06T09:52:24;99968.03;;;12.31
82636;BMP280;72317;37.280;-121.948;2024-03-06T09:57:25;99846.78;;;12.36
82636;BMP280;72317;37.280;-121.948;2024-03-06T10:02:34;99805.41;;;12.20
82636;BMP280;72317;37.280;-121.948;2024-03-06T10:07:37;99791.19;;;12.26
82636;BMP280;72317;37.280;-121.948;2024-03-06T10:12:38;99768.13;;;12.32
82636;BMP280;72317;37.280;-121.948;2024-03-06T10:17:39;99675.69;;;12.26
82636;BMP280;72317;37.280;-121.948;2024-03-06T10:22:40;99661.22;;;12.13
82636;BMP280;72317;37.280;-121.948;2024-03-06T10:27:40;99655.44;;;12.15
82636;BMP280;72317;37.280;-121.948;2024-03-06T10:32:42;99662.75;;;12.10
82636;BMP280;72317;37.280;-121.948;2024-03-06T10:37:45;99711.56;;;11.98
82636;BMP280;72317;37.280;-121.948;2024-03-06T10:42:46;99782.03;;;12.20
82636;BMP280;72317;37.280;-121.948;2024-03-06T10:47:48;99796.22;;;12.17
82636;BMP280;72317;37.280;-121.948;2024-03-06T10:52:53;99844.16;;;12.29
82636;BMP280;72317;37.280;-121.948;2024-03-06T10:57:55;99850.22;;;12.33
82636;BMP280;72317;37.280;-121.948;2024-03-06T11:02:57;99875.56;;;12.32
82636;BMP280;72317;37.280;-121.948;2024-03-06T11:07:58;99853.66;;;12.41
82636;BMP280;72317;37.280;-121.948;2024-03-06T11:13:00;99831.06;;;12.28
82636;BMP280;72317;37.280;-121.948;2024-03-06T11:23:31;99719.53;;;12.16
82636;BMP280;72317;37.280;-121.948;2024-03-06T11:28:33;99660.44;;;12.16
82636;BMP280;72317;37.280;-121.948;2024-03-06T11:33:43;99574.38;;;12.30
82636;BMP280;72317;37.280;-121.948;2024-03-06T11:38:59;99536.69;;;12.37
82636;BMP280;72317;37.280;-121.948;2024-03-06T11:44:01;99512.88;;;12.39
82636;BMP280;72317;37.280;-121.948;2024-03-06T11:49:01;99500.25;;;12.36
82636;BMP280;72317;37.280;-121.948;2024-03-06T11:54:05;99518.63;;;12.42
82636;BMP280;72317;37.280;-121.948;2024-03-06T11:59:06;99561.03;;;12.20
82636;BMP280;72317;37.280;-121.948;2024-03-06T12:04:07;99591.28;;;12.27
82636;BMP280;72317;37.280;-121.948;2024-03-06T12:09:08;99580.78;;;12.44
82636;BMP280;72317;37.280;-121.948;2024-03-06T12:14:17;99595.88;;;12.30
82636;BMP280;72317;37.280;-121.948;2024-03-06T12:19:19;99585.78;;;12.42
82636;BMP280;72317;37.280;-121.948;2024-03-06T12:24:20;99601.13;;;12.45
82636;BMP280;72317;37.280;-121.948;2024-03-06T12:29:21;99608.03;;;12.42
82636;BMP280;72317;37.280;-121.948;2024-03-06T12:34:21;99608.72;;;12.50
82636;BMP280;72317;37.280;-121.948;2024-03-06T12:39:23;99635.72;;;12.35
82636;BMP280;72317;37.280;-121.948;2024-03-06T12:44:24;99651.81;;;12.39
82636;BMP280;72317;37.280;-121.948;2024-03-06T12:49:25;99655.28;;;12.36
82636;BMP280;72317;37.280;-121.948;2024-03-06T12:54:25;99685.66;;;12.29
82636;BMP280;72317;37.280;-121.948;2024-03-06T12:59:26;99704.41;;;12.36
82636;BMP280;72317;37.280;-121.948;2024-03-06T13:04:27;99725.97;;;12.29
82636;BMP280;72317;37.280;-121.948;2024-03-06T13:09:28;99753.19;;;12.24
82636;BMP280;72317;37.280;-121.948;2024-03-06T13:14:28;99752.94;;;12.08
82636;BMP280;72317;37.280;-121.948;2024-03-06T13:19:29;99765.09;;;12.27
82636;BMP280;72317;37.280;-121.948;2024-03-06T13:24:30;99815.44;;;12.12
82636;BMP280;72317;37.280;-121.948;2024-03-06T13:29:31;99841.94;;;12.06
82636;BMP280;72317;37.280;-121.948;2024-03-06T13:34:32;99845.00;;;12.08
82636;BMP280;72317;37.280;-121.948;2024-03-06T13:39:32;99844.63;;;11.96
82636;BMP280;72317;37.280;-121.948;2024-03-06T13:44:34;99845.03;;;12.01
82636;BMP280;72317;37.280;-121.948;2024-03-06T13:49:40;99864.22;;;11.82
82636;BMP280;72317;37.280;-121.948;2024-03-06T13:54:42;99878.34;;;12.04
82636;BMP280;72317;37.280;-121.948;2024-03-06T13:59:43;99879.09;;;12.12
82636;BMP280;72317;37.280;-121.948;2024-03-06T14:04:43;99880.25;;;12.10
82636;BMP280;72317;37.280;-121.948;2024-03-06T14:09:44;99880.66;;;12.16
82636;BMP280;72317;37.280;-121.948;2024-03-06T14:14:45;99915.97;;;11.97
82636;BMP280;72317;37.280;-121.948;2024-03-06T14:19:46;99941.66;;;11.91
82636;BMP280;72317;37.280;-121.948;2024-03-06T14:24:46;99936.66;;;11.96
82636;BMP280;72317;37.280;-121.948;2024-03-06T14:29:47;99938.63;;;11.74
82636;BMP280;72317;37.280;-121.948;2024-03-06T14:34:48;99952.06;;;11.92
82636;BMP280;72317;37.280;-121.948;2024-03-06T14:39:49;100012.25;;;11.95
82636;BMP280;72317;37.280;-121.948;2024-03-06T14:44:50;100050.59;;;11.85
82636;BMP280;72317;37.280;-121.948;2024-03-06T14:49:50;100087.78;;;11.82
82636;BMP280;72317;37.280;-121.948;2024-03-06T14:54:51;100121.13;;;11.81
82636;BMP280;72317;37.280;-121.948;2024-03-06T14:59:52;100155.25;;;11.81
82636;BMP280;72317;37.280;-121.948;2024-03-06T15:04:52;100165.69;;;12.07
82636;BMP280;72317;37.280;-121.948;2024-03-06T15:09:53;100195.22;;;12.11
82636;BMP280;72317;37.280;-121.948;2024-03-06T15:14:54;100207.53;;;12.16
82636;BMP280;72317;37.280;-121.948;2024-03-06T15:19:55;100224.38;;;12.13
82636;BMP280;72317;37.280;-121.948;2024-03-06T15:24:56;100209.44;;;12.08
82636;BMP280;72317;37.280;-121.948;2024-03-06T15:29:56;100192.91;;;12.17
82636;BMP280;72317;37.280;-121.948;2024-03-06T15:34:57;100213.66;;;12.02
82636;BMP280;72317;37.280;-121.948;2024-03-06T15:39:58;100213.28;;;12.25
82636;BMP280;72317;37.280;-121.948;2024-03-06T15:44:59;100225.94;;;12.28
82636;BMP280;72317;37.280;-121.948;2024-03-06T15:50:00;100257.78;;;12.22
82636;BMP280;72317;37.280;-121.948;2024-03-06T15:55:01;100263.91;;;12.19
82636;BMP280;72317;37.280;-121.948;2024-03-06T16:00:03;100283.50;;;12.16
82636;BMP280;72317;37.280;-121.948;2024-03-06T16:05:04;100291.53;;;12.20
82636;BMP280;72317;37.280;-121.948;2024-03-06T16:10:05;100285.44;;;12.40
82636;BMP280;72317;37.280;-121.948;2024-03-06T16:15:06;100283.16;;;12.43
82636;BMP280;72317;37.280;-121.948;2024-03-06T16:20:08;100275.91;;;12.57
82636;BMP280;72317;37.280;-121.948;2024-03-06T16:25:08;100245.53;;;12.75
82636;BMP280;72317;37.280;-121.948;2024-03-06T16:30:10;100219.44;;;12.79
82636;BMP280;72317;37.280;-121.948;2024-03-06T16:35:11;100166.78;;;12.92
82636;BMP280;72317;37.280;-121.948;2024-03-06T16:40:11;100138.72;;;12.89
82636;BMP280;72317;37.280;-121.948;2024-03-06T16:45:12;100077.22;;;13.09
82636;BMP280;72317;37.280;-121.948;2024-03-06T16:50:13;99985.28;;;13.21
82636;BMP280;72317;37.280;-121.948;2024-03-06T16:55:14;99899.03;;;13.39
82636;BMP280;72317;37.280;-121.948;2024-03-06T17:00:15;99746.88;;;13.35
82636;BMP280;72317;37.280;-121.948;2024-03-06T17:05:16;99618.78;;;13.44
82636;BMP280;72317;37.280;-121.948;2024-03-06T17:10:17;99479.44;;;13.55
82636;BMP280;72317;37.280;-121.948;2024-03-06T17:15:18;99369.28;;;13.88
82636;BMP280;72317;37.280;-121.948;2024-03-06T17:20:19;99255.44;;;13.68
82636;BMP280;72317;37.280;-121.948;2024-03-06T17:25:19;99043.59;;;14.30
82636;BMP280;72317;37.280;-121.948;2024-03-06T17:30:20;98687.28;;;14.29
82636;BMP280;72317;37.280;-121.948;2024-03-06T17:35:21;98518.66;;;14.54
82636;BMP280;72317;37.280;-121.948;2024-03-06T17:40:22;98162.53;;;14.92
82636;BMP280;72317;37.280;-121.948;2024-03-06T17:45:23;97742.09;;;15.21
82636;BMP280;72317;37.280;-121.948;2024-03-06T17:50:24;97805.03;;;15.18
82636;BMP280;72317;37.280;-121.948;2024-03-06T17:55:25;98040.50;;;14.91
82636;BMP280;72317;37.280;-121.948;2024-03-06T18:00:26;98042.44;;;14.91
82636;BMP280;72317;37.280;-121.948;2024-03-06T18:05:27;97589.13;;;15.57
82636;BMP280;72317;37.280;-121.948;2024-03-06T18:10:28;96964.59;;;15.95
82636;BMP280;72317;37.280;-121.948;2024-03-06T18:15:29;96877.50;;;15.89
82636;BMP280;72317;37.280;-121.948;2024-03-06T18:20:29;96677.22;;;16.18
82636;BMP280;72317;37.280;-121.948;2024-03-06T18:25:30;96628.31;;;16.33
82636;BMP280;72317;37.280;-121.948;2024-03-06T18:30:31;96585.34;;;16.35
82636;BMP280;72317;37.280;-121.948;2024-03-06T18:35:32;96637.97;;;16.12
82636;BMP280;72317;37.280;-121.948;2024-03-06T18:40:33;96598.53;;;16.80
82636;BMP280;72317;37.280;-121.948;2024-03-06T18:45:33;96676.50;;;16.18
82636;BMP280;72317;37.280;-121.948;2024-03-06T18:50:34;96722.44;;;15.90
82636;BMP280;72317;37.280;-121.948;2024-03-06T18:55:35;96866.13;;;15.46
82636;BMP280;72317;37.280;-121.948;2024-03-06T19:00:36;96960.34;;;15.55
82636;BMP280;72317;37.280;-121.948;2024-03-06T19:05:37;96899.69;;;15.39
82636;BMP280;72317;37.280;-121.948;2024-03-06T19:10:37;97204.72;;;15.15
82636;BMP280;72317;37.280;-121.948;2024-03-06T19:15:38;97149.06;;;15.43
82636;BMP280;72317;37.280;-121.948;2024-03-06T19:20:39;97065.91;;;15.05
82636;BMP280;72317;37.280;-121.948;2024-03-06T19:25:40;97301.22;;;15.31
82636;BMP280;72317;37.280;-121.948;2024-03-06T19:30:41;96944.88;;;15.61
82636;BMP280;72317;37.280;-121.948;2024-03-06T19:35:41;97059.88;;;15.58
82636;BMP280;72317;37.280;-121.948;2024-03-06T19:40:42;96923.09;;;15.64
82636;BMP280;72317;37.280;-121.948;2024-03-06T19:45:43;96769.69;;;16.52
82636;BMP280;72317;37.280;-121.948;2024-03-06T19:50:44;96781.75;;;16.34
82636;BMP280;72317;37.280;-121.948;2024-03-06T19:55:45;96820.31;;;17.45
82636;BMP280;72317;37.280;-121.948;2024-03-06T20:00:46;97004.22;;;18.09
82636;BMP280;72317;37.280;-121.948;2024-03-06T20:05:46;97559.44;;;18.03
82636;BMP280;72317;37.280;-121.948;2024-03-06T20:10:47;97831.22;;;18.26
82636;BMP280;72317;37.280;-121.948;2024-03-06T20:15:48;98323.19;;;18.27
82636;BMP280;72317;37.280;-121.948;2024-03-06T20:20:49;98310.88;;;20.02
82636;BMP280;72317;37.280;-121.948;2024-03-06T20:25:49;98411.63;;;19.67
82636;BMP280;72317;37.280;-121.948;2024-03-06T20:30:50;98614.13;;;20.34
82636;BMP280;72317;37.280;-121.948;2024-03-06T20:35:51;98896.97;;;21.15
82636;BMP280;72317;37.280;-121.948;2024-03-06T20:40:52;98350.16;;;21.25
82636;BMP280;72317;37.280;-121.948;2024-03-06T20:45:54;98085.91;;;21.58
82636;BMP280;72317;37.280;-121.948;2024-03-06T20:50:54;98193.25;;;21.16
82636;BMP280;72317;37.280;-121.948;2024-03-06T20:55:55;98204.59;;;21.09
82636;BMP280;72317;37.280;-121.948;2024-03-06T21:00:56;98166.47;;;21.26
82636;BMP280;72317;37.280;-121.948;2024-03-06T21:05:57;96985.28;;;19.92
82636;BMP280;72317;37.280;-121.948;2024-03-06T21:10:58;96154.22;;;18.18
82636;BMP280;72317;37.280;-121.948;2024-03-06T21:15:59;95671.16;;;18.14
82636;BMP280;72317;37.280;-121.948;2024-03-06T21:21:00;95664.97;;;17.20
82636;BMP280;72317;37.280;-121.948;2024-03-06T21:26:01;95779.19;;;17.13
82636;BMP280;72317;37.280;-121.948;2024-03-06T21:31:02;96028.56;;;16.87
82636;BMP280;72317;37.280;-121.948;2024-03-06T21:36:03;96356.72;;;17.11
82636;BMP280;72317;37.280;-121.948;2024-03-06T21:41:24;96580.88;;;16.79
82636;BMP280;72317;37.280;-121.948;2024-03-06T21:46:25;96855.38;;;17.21
82636;BMP280;72317;37.280;-121.948;2024-03-06T21:51:26;96911.63;;;16.48
82636;BMP280;72317;37.280;-121.948;2024-03-06T21:56:26;96826.63;;;16.54
82636;BMP280;72317;37.280;-121.948;2024-03-06T22:01:27;96770.50;;;16.14
82636;BMP280;72317;37.280;-121.948;2024-03-06T22:06:28;96971.94;;;15.89
82636;BMP280;72317;37.280;-121.948;2024-03-06T22:11:30;97088.06;;;16.05
82636;BMP280;72317;37.280;-121.948;2024-03-06T22:16:30;96771.28;;;15.64
82636;BMP280;72317;37.280;-121.948;2024-03-06T22:21:32;96847.06;;;15.55
82636;BMP280;72317;37.280;-121.948;2024-03-06T22:26:33;96944.88;;;15.55
82636;BMP280;72317;37.280;-121.948;2024-03-06T22:31:33;96978.75;;;15.73
82636;BMP280;72317;37.280;-121.948;2024-03-06T22:36:34;97402.72;;;15.34
82636;BMP280;72317;37.280;-121.948;2024-03-06T22:41:35;97536.97;;;15.10
82636;BMP280;72317;37.280;-121.948;2024-03-06T22:46:36;97528.88;;;15.10
82636;BMP280;72317;37.280;-121.948;2024-03-06T22:51:36;97382.84;;;15.11
82636;BMP280;72317;37.280;-121.948;2024-03-06T22:56:37;97394.44;;;15.18
82636;BMP280;72317;37.280;-121.948;2024-03-06T23:01:38;97338.09;;;14.99
82636;BMP280;72317;37.280;-121.948;2024-03-06T23:06:39;97340.69;;;15.34
82636;BMP280;72317;37.280;-121.948;2024-03-06T23:11:40;97390.41;;;15.28
82636;BMP280;72317;37.280;-121.948;2024-03-06T23:16:41;97264.13;;;15.26
82636;BMP280;72317;37.280;-121.948;2024-03-06T23:21:41;97101.13;;;15.27
82636;BMP280;72317;37.280;-121.948;2024-03-06T23:26:42;96984.19;;;15.25
82636;BMP280;72317;37.280;-121.948;2024-03-06T23:31:43;96932.50;;;15.26
82636;BMP280;72317;37.280;-121.948;2024-03-06T23:36:44;96977.66;;;15.31
82636;BMP280;72317;37.280;-121.948;2024-03-06T23:41:45;97082.56;;;15.03
82636;BMP280;72317;37.280;-121.948;2024-03-06T23:46:45;97057.75;;;15.25
82636;BMP280;72317;37.280;-121.948;2024-03-06T23:51:46;96980.53;;;15.28
82636;BMP280;72317;37.280;-121.948;2024-03-06T23:56:47;96929.91;;;15.54
